»·PEaware :: N8362H KISN-KRAP

N8362H :: KISN-KRAP

FLIGHT INFORMATION

Flight Status: Arrived
Operator: Privately registered:
United States
More flights under this callsign
Pilot: Bill H. (23183)
Aircraft: CESSNA 172 SKYHAWK
(C172)
More flights by this aircraft type
Origin: KISN Sloulin Intl
United States
Destination: KRAP Rapid City Regl
United States
More flights between these airports :: More routes between these airports
Route: KISN S25 KBWW KRAP
File this flight plan on PilotEdge
Remarks: +CW / Training Flight | Cessna 172SP
Altitude:
(Current/Filed)
7,500ft
Speed:
(Current/Filed)
120kts
Departed: 10-Apr-19 06:16 AM
Arrived: 10-Apr-19 08:36 AM
Distance/Time
Traveled:
249nm/2:20
Distance/Time
To Go:
Arrived

Flight Plot

Page will automatically refresh every two minutes.

Flight plan parsing failed; only flown route is shown


Map Options




Map Legend


Flown Route
Filed Route
Departure Airport
Arrival Airport
Navaid (VOR, NDB)
Fix

Horizontal Profiles

Position Reports

Time Latitude Longitude Heading Altitude Ground
Speed
10-Apr-19 06:07 48.174760 -103.629381 33 1889ft 0kts
10-Apr-19 06:08 48.174760 -103.629381 33 1889ft 0kts
10-Apr-19 06:09 48.174760 -103.629381 33 1889ft 0kts
10-Apr-19 06:10 48.174760 -103.629381 33 1889ft 0kts
10-Apr-19 06:11 48.175357 -103.630509 286 1892ft 5kts
10-Apr-19 06:12 48.174717 -103.631494 214 1896ft 0kts
10-Apr-19 06:13 48.174708 -103.631504 214 1896ft 1kts
10-Apr-19 06:14 48.174119 -103.632594 302 1897ft 0kts
10-Apr-19 06:15 48.182908 -103.647574 319 2368ft 73kts
10-Apr-19 06:16 48.179142 -103.670174 169 3177ft 90kts
10-Apr-19 06:17 48.165062 -103.639117 119 3987ft 95kts
10-Apr-19 06:18 48.146503 -103.611263 142 4786ft 94kts
10-Apr-19 06:19 48.125525 -103.588979 144 5582ft 90kts
10-Apr-19 06:20 48.105488 -103.568441 145 6375ft 84kts
10-Apr-19 06:21 48.087643 -103.550251 145 7157ft 69kts
10-Apr-19 06:22 48.069477 -103.531802 145 7513ft 103kts
10-Apr-19 06:23 48.042347 -103.504339 145 7502ft 117kts
10-Apr-19 06:24 48.014915 -103.476483 145 7502ft 120kts
10-Apr-19 06:25 47.987141 -103.448311 145 7502ft 120kts
10-Apr-19 06:26 47.959413 -103.420222 145 7502ft 120kts
10-Apr-19 06:27 47.931611 -103.392095 145 7502ft 120kts
10-Apr-19 06:28 47.903791 -103.363986 145 7502ft 120kts
10-Apr-19 06:29 47.875838 -103.335782 146 7502ft 120kts
10-Apr-19 06:30 47.851812 -103.311583 146 7501ft 119kts
10-Apr-19 06:31 47.825658 -103.285250 146 7502ft 119kts
10-Apr-19 06:32 47.797712 -103.259329 166 7501ft 119kts
10-Apr-19 06:33 47.764709 -103.257177 181 7502ft 119kts
10-Apr-19 06:34 47.731722 -103.258463 181 7502ft 119kts
10-Apr-19 06:35 47.698613 -103.259612 181 7502ft 119kts
10-Apr-19 06:36 47.665673 -103.260655 181 7502ft 119kts
10-Apr-19 06:37 47.632599 -103.261676 181 7502ft 119kts
10-Apr-19 06:38 47.599489 -103.262691 181 7502ft 119kts
10-Apr-19 06:39 47.566531 -103.263699 181 7502ft 119kts
10-Apr-19 06:40 47.533342 -103.264712 181 7502ft 119kts
10-Apr-19 06:41 47.500268 -103.265720 181 7502ft 119kts
10-Apr-19 06:42 47.467208 -103.266726 181 7502ft 119kts
10-Apr-19 06:43 47.434159 -103.267731 181 7502ft 119kts
10-Apr-19 06:44 47.401140 -103.268734 181 7502ft 119kts
10-Apr-19 06:45 47.368015 -103.269738 181 7502ft 119kts
10-Apr-19 06:46 47.334862 -103.270740 181 7502ft 120kts
10-Apr-19 06:47 47.301410 -103.271750 181 7502ft 120kts
10-Apr-19 06:48 47.268044 -103.272758 181 7502ft 120kts
10-Apr-19 06:49 47.234506 -103.273769 181 7502ft 120kts
10-Apr-19 06:50 47.201062 -103.274776 181 7502ft 120kts
10-Apr-19 06:51 47.167559 -103.275784 181 7502ft 120kts
10-Apr-19 06:52 47.134124 -103.276788 181 7502ft 120kts
10-Apr-19 06:53 47.100732 -103.277790 181 7502ft 120kts
10-Apr-19 06:54 47.067240 -103.278794 181 7502ft 120kts
10-Apr-19 06:55 47.033859 -103.279793 181 7502ft 120kts
10-Apr-19 06:56 47.000365 -103.280794 181 7502ft 120kts
10-Apr-19 06:57 46.966980 -103.281791 181 7502ft 120kts
10-Apr-19 06:58 46.933531 -103.282788 181 7502ft 120kts
10-Apr-19 06:59 46.900091 -103.283784 181 7502ft 120kts
10-Apr-19 07:00 46.866568 -103.284779 181 7502ft 120kts
10-Apr-19 07:01 46.833095 -103.285773 181 7502ft 120kts
10-Apr-19 07:02 46.799683 -103.286093 179 7502ft 120kts
10-Apr-19 07:03 46.766172 -103.286063 180 7502ft 120kts
10-Apr-19 07:04 46.732710 -103.286802 181 7502ft 120kts
10-Apr-19 07:05 46.699157 -103.287733 181 7502ft 120kts
10-Apr-19 07:06 46.665710 -103.288706 181 7502ft 120kts
10-Apr-19 07:07 46.632203 -103.289691 181 7502ft 120kts
10-Apr-19 07:08 46.598620 -103.290680 181 7502ft 120kts
10-Apr-19 07:09 46.565149 -103.291666 181 7502ft 120kts
10-Apr-19 07:10 46.531558 -103.292654 181 7502ft 120kts
10-Apr-19 07:11 46.498183 -103.293634 181 7502ft 120kts
10-Apr-19 07:12 46.464700 -103.294616 181 7502ft 120kts
10-Apr-19 07:13 46.431324 -103.295594 181 7502ft 120kts
10-Apr-19 07:14 46.397890 -103.296572 181 7502ft 120kts
10-Apr-19 07:15 46.364455 -103.297549 181 7502ft 120kts
10-Apr-19 07:16 46.330929 -103.298528 181 7502ft 120kts
10-Apr-19 07:17 46.297532 -103.299502 181 7502ft 120kts
10-Apr-19 07:18 46.264070 -103.300476 181 7502ft 120kts
10-Apr-19 07:19 46.230688 -103.301447 181 7502ft 120kts
10-Apr-19 07:20 46.197194 -103.302419 181 7502ft 120kts
10-Apr-19 07:21 46.163424 -103.302695 176 7502ft 124kts
10-Apr-19 07:22 46.128811 -103.298931 175 7502ft 125kts
10-Apr-19 07:23 46.094033 -103.294918 175 7502ft 125kts
10-Apr-19 07:24 46.059110 -103.290846 175 7502ft 125kts
10-Apr-19 07:25 46.024359 -103.286789 175 7502ft 125kts
10-Apr-19 07:26 45.989573 -103.282731 175 7502ft 125kts
10-Apr-19 07:27 45.954681 -103.278664 175 7502ft 125kts
10-Apr-19 07:28 45.919892 -103.274615 175 7502ft 125kts
10-Apr-19 07:29 45.884899 -103.270546 175 7502ft 125kts
10-Apr-19 07:30 45.850119 -103.266507 175 7502ft 125kts
10-Apr-19 07:31 45.815257 -103.262464 175 7502ft 125kts
10-Apr-19 07:32 45.780480 -103.258437 175 7502ft 125kts
10-Apr-19 07:33 45.745594 -103.253905 173 7502ft 125kts
10-Apr-19 07:34 45.710981 -103.248769 174 7500ft 121kts
10-Apr-19 07:35 45.677945 -103.244710 175 7502ft 118kts
10-Apr-19 07:36 45.645096 -103.240865 175 7502ft 118kts
10-Apr-19 07:37 45.611907 -103.237023 175 7502ft 121kts
10-Apr-19 07:38 45.577973 -103.233120 175 7502ft 122kts
10-Apr-19 07:39 45.543861 -103.229205 175 7502ft 122kts
10-Apr-19 07:40 45.509854 -103.225308 175 7502ft 122kts
10-Apr-19 07:41 45.475870 -103.221419 175 7502ft 122kts
10-Apr-19 07:42 45.441932 -103.217546 175 7501ft 120kts
10-Apr-19 07:43 45.408844 -103.213773 175 7502ft 118kts
10-Apr-19 07:44 45.375973 -103.210026 175 7502ft 118kts
10-Apr-19 07:45 45.343031 -103.206275 175 7502ft 118kts
10-Apr-19 07:46 45.310191 -103.202541 175 7502ft 118kts
10-Apr-19 07:47 45.293894 -103.200689 175 7502ft 118kts
10-Apr-19 07:48 45.260820 -103.196931 175 7502ft 120kts
10-Apr-19 07:49 45.227539 -103.193155 175 7502ft 120kts
10-Apr-19 07:50 45.194116 -103.189368 175 7502ft 120kts
10-Apr-19 07:51 45.160721 -103.185590 175 7502ft 120kts
10-Apr-19 07:52 45.127278 -103.181810 175 7502ft 120kts
10-Apr-19 07:53 45.093888 -103.178041 175 7502ft 120kts
10-Apr-19 07:54 45.060471 -103.174272 175 7502ft 120kts
10-Apr-19 07:55 45.027133 -103.170517 175 7502ft 120kts
10-Apr-19 07:56 44.993651 -103.166750 175 7502ft 120kts
10-Apr-19 07:58 44.960028 -103.162972 175 7502ft 120kts
10-Apr-19 07:59 44.926373 -103.159195 175 7502ft 120kts
10-Apr-19 08:00 44.892615 -103.155411 175 7502ft 120kts
10-Apr-19 08:01 44.859129 -103.151660 175 7502ft 120kts
10-Apr-19 08:02 44.825431 -103.147892 175 7502ft 120kts
10-Apr-19 08:03 44.791923 -103.144149 175 7502ft 120kts
10-Apr-19 08:04 44.758469 -103.140416 175 7502ft 120kts
10-Apr-19 08:05 44.725021 -103.136354 173 7502ft 120kts
10-Apr-19 08:06 44.691556 -103.131443 174 7502ft 120kts
10-Apr-19 08:07 44.658226 -103.127407 175 7502ft 120kts
10-Apr-19 08:08 44.624784 -103.123613 175 7502ft 120kts
10-Apr-19 08:09 44.591279 -103.119877 175 7502ft 120kts
10-Apr-19 08:10 44.557719 -103.116155 175 7502ft 120kts
10-Apr-19 08:11 44.524310 -103.112230 174 7502ft 120kts
10-Apr-19 08:12 44.490816 -103.107944 175 7502ft 120kts
10-Apr-19 08:13 44.459099 -103.104370 175 7502ft 120kts
10-Apr-19 08:14 44.425616 -103.100645 175 7502ft 120kts
10-Apr-19 08:15 44.392150 -103.096928 175 7502ft 120kts
10-Apr-19 08:16 44.358556 -103.093201 175 7501ft 120kts
10-Apr-19 08:17 44.325616 -103.089555 175 7502ft 118kts
10-Apr-19 08:18 44.293002 -103.085943 175 7502ft 118kts
10-Apr-19 08:19 44.259621 -103.082288 175 7115ft 117kts
10-Apr-19 08:20 44.227782 -103.078776 175 6613ft 114kts
10-Apr-19 08:21 44.205500 -103.105971 240 6107ft 113kts
10-Apr-19 08:21 44.192713 -103.137866 240 5690ft 113kts
10-Apr-19 08:23 44.172237 -103.179049 192 5097ft 113kts
10-Apr-19 08:24 44.140958 -103.174309 172 4598ft 113kts
10-Apr-19 08:25 44.112338 -103.168627 171 4503ft 93kts
10-Apr-19 08:26 44.090648 -103.151975 138 4528ft 93kts
10-Apr-19 08:26 44.074081 -103.132697 157 4586ft 95kts
10-Apr-19 08:28 44.044000 -103.125271 172 4683ft 94kts
10-Apr-19 08:28 44.022354 -103.121142 172 4743ft 94kts
10-Apr-19 08:30 43.991856 -103.115410 172 4813ft 94kts
10-Apr-19 08:30 43.982214 -103.093024 83 4845ft 94kts
10-Apr-19 08:31 43.985182 -103.056181 88 4750ft 100kts
10-Apr-19 08:32 43.997917 -103.028648 353 4056ft 102kts
10-Apr-19 08:33 44.020388 -103.041265 330 3418ft 70kts
10-Apr-19 08:35 44.039166 -103.055174 333 3149ft 43kts
10-Apr-19 08:35 44.043649 -103.059132 255 3164ft 8kts
10-Apr-19 08:36 44.043313 -103.060014 239 3163ft 9kts
10-Apr-19 08:37 44.042834 -103.061590 241 3159ft 0kts
10-Apr-19 08:38 44.042834 -103.061590 241 3159ft 0kts

Navigation Log

Ident Type
Flight plan parsing failed, navigation log unavailable